createdAt,value
2018-06-16T00:00:15.692Z,20.67
2018-06-16T00:02:46.851Z,20.70
2018-06-16T00:05:18.731Z,20.74
2018-06-16T00:07:49.888Z,20.81
2018-06-16T00:10:21.011Z,20.71
2018-06-16T00:12:52.014Z,20.69
2018-06-16T00:15:23.393Z,20.74
2018-06-16T00:17:54.310Z,20.69
2018-06-16T00:20:25.168Z,20.60
2018-06-16T00:22:56.237Z,20.62
2018-06-16T00:25:27.322Z,20.51
2018-06-16T00:27:58.252Z,20.47
2018-06-16T00:30:30.558Z,20.37
2018-06-16T00:33:01.809Z,20.44
2018-06-16T00:35:32.947Z,20.45
2018-06-16T00:38:03.868Z,20.48
2018-06-16T00:40:35.694Z,20.37
2018-06-16T00:43:07.496Z,20.34
2018-06-16T00:45:38.870Z,20.30
2018-06-16T00:48:10.045Z,20.23
2018-06-16T00:50:41.070Z,20.28
2018-06-16T00:53:12.237Z,20.22
2018-06-16T00:55:43.458Z,20.24
2018-06-16T00:58:14.689Z,20.33
2018-06-16T01:00:46.888Z,20.37
2018-06-16T01:03:17.946Z,20.41
2018-06-16T01:05:50.068Z,20.45
2018-06-16T01:08:21.271Z,20.50
2018-06-16T01:10:52.459Z,20.50
2018-06-16T01:13:23.582Z,20.43
2018-06-16T01:15:54.603Z,20.40
2018-06-16T01:18:25.938Z,20.30
2018-06-16T01:20:57.374Z,20.37
2018-06-16T01:23:28.476Z,20.31
2018-06-16T01:25:59.372Z,20.31
2018-06-16T01:28:30.111Z,20.28
2018-06-16T01:31:01.318Z,20.19
2018-06-16T01:33:33.422Z,20.29
2018-06-16T01:36:04.471Z,20.24
2018-06-16T01:38:35.678Z,20.28
2018-06-16T01:41:06.598Z,20.25
2018-06-16T01:43:37.648Z,20.22
2018-06-16T01:46:08.750Z,20.23
2018-06-16T01:48:39.823Z,20.10
2018-06-16T01:51:11.121Z,20.16
2018-06-16T01:53:42.223Z,20.05
2018-06-16T01:56:14.319Z,19.93
2018-06-16T01:58:46.211Z,19.91
2018-06-16T02:01:18.318Z,19.87
2018-06-16T02:03:49.278Z,19.90
2018-06-16T02:06:21.403Z,19.88
2018-06-16T02:08:52.561Z,19.95
2018-06-16T02:11:23.848Z,19.92
2018-06-16T02:13:55.165Z,19.87
2018-06-16T02:16:26.149Z,19.69
2018-06-16T02:18:57.117Z,19.63
2018-06-16T02:21:28.054Z,19.68
2018-06-16T02:23:59.123Z,19.70
2018-06-16T02:26:30.382Z,19.64
2018-06-16T02:29:01.531Z,19.66
2018-06-16T02:31:34.564Z,19.72
2018-06-16T02:34:05.552Z,19.49
2018-06-16T02:36:36.712Z,19.60
2018-06-16T02:39:09.830Z,19.75
2018-06-16T02:41:40.997Z,19.81
2018-06-16T02:44:12.422Z,19.63
2018-06-16T02:46:43.996Z,19.69
2018-06-16T02:49:15.009Z,19.86
2018-06-16T02:51:46.283Z,19.83
2018-06-16T02:54:17.248Z,19.92
2018-06-16T02:56:49.255Z,20.05
2018-06-16T02:59:20.598Z,19.94
2018-06-16T03:01:51.765Z,20.09
2018-06-16T03:04:23.841Z,20.27
2018-06-16T03:06:55.537Z,20.57
2018-06-16T03:09:26.583Z,20.75
2018-06-16T03:11:58.548Z,21.48
2018-06-16T03:14:29.752Z,22.57
2018-06-16T03:17:00.667Z,23.58
2018-06-16T03:19:32.414Z,24.55
2018-06-16T03:22:03.565Z,25.56
2018-06-16T03:24:34.774Z,26.46
2018-06-16T03:27:06.745Z,27.42
2018-06-16T03:29:37.755Z,27.86
2018-06-16T03:32:08.773Z,28.72
2018-06-16T03:34:39.896Z,29.67
2018-06-16T03:37:11.673Z,30.43
2018-06-16T03:39:42.749Z,30.53
2018-06-16T03:42:15.167Z,30.88
2018-06-16T03:44:46.343Z,31.05
2018-06-16T03:47:17.340Z,31.35
2018-06-16T03:49:48.397Z,31.41
2018-06-16T03:52:19.856Z,31.49
2018-06-16T03:54:50.972Z,30.64
2018-06-16T03:57:23.678Z,31.26
2018-06-16T03:59:54.792Z,31.56
2018-06-16T04:02:26.571Z,30.70
2018-06-16T04:04:57.672Z,30.22
2018-06-16T04:07:28.849Z,29.70
2018-06-16T04:10:00.952Z,29.88
2018-06-16T04:12:33.785Z,30.57
2018-06-16T04:15:04.759Z,30.01
2018-06-16T04:17:35.846Z,30.34
2018-06-16T04:20:07.152Z,29.37
2018-06-16T04:22:38.170Z,28.86
2018-06-16T04:25:09.649Z,29.13
2018-06-16T04:27:41.721Z,28.48
2018-06-16T04:30:12.820Z,29.94
2018-06-16T04:32:43.733Z,30.56
2018-06-16T04:35:15.035Z,30.40
2018-06-16T04:37:46.190Z,31.64
2018-06-16T04:40:17.243Z,30.88
2018-06-16T04:42:48.279Z,30.90
2018-06-16T04:45:19.307Z,31.08
2018-06-16T04:47:50.300Z,31.50
2018-06-16T04:50:20.905Z,32.90
2018-06-16T04:52:52.455Z,33.67
2018-06-16T04:55:23.638Z,33.67
2018-06-16T04:57:54.940Z,32.98
2018-06-16T05:00:26.354Z,33.69
2018-06-16T05:02:57.409Z,34.55
2018-06-16T05:05:28.567Z,34.45
2018-06-16T05:07:59.577Z,35.44
2018-06-16T05:10:30.695Z,36.07
2018-06-16T05:13:01.730Z,34.64
2018-06-16T05:15:32.898Z,34.53
2018-06-16T05:18:05.327Z,35.65
2018-06-16T05:20:36.366Z,33.58
2018-06-16T05:23:08.313Z,34.18
2018-06-16T05:25:39.798Z,32.62
2018-06-16T05:28:11.052Z,31.98
2018-06-16T05:30:43.230Z,34.41
2018-06-16T05:33:14.607Z,35.74
2018-06-16T05:35:45.773Z,37.41
2018-06-16T05:38:17.856Z,35.29
2018-06-16T05:40:48.972Z,34.36
2018-06-16T05:43:20.621Z,35.68
2018-06-16T05:45:51.730Z,38.05
2018-06-16T05:48:23.115Z,35.90
2018-06-16T05:50:54.386Z,36.40
2018-06-16T05:53:25.269Z,36.75
2018-06-16T05:55:56.488Z,37.34
2018-06-16T05:58:27.508Z,36.44
2018-06-16T06:00:58.479Z,37.39
2018-06-16T06:03:30.385Z,37.02
2018-06-16T06:06:01.617Z,36.23
2018-06-16T06:08:32.906Z,37.47
2018-06-16T06:11:04.630Z,40.56
2018-06-16T06:13:36.442Z,41.29
2018-06-16T06:16:07.713Z,41.47
2018-06-16T06:18:39.191Z,42.60
2018-06-16T06:21:10.991Z,40.76
2018-06-16T06:23:42.302Z,37.38
2018-06-16T06:26:13.505Z,37.35
2018-06-16T06:28:45.460Z,36.73
2018-06-16T06:31:16.581Z,36.34
2018-06-16T06:33:47.779Z,37.38
2018-06-16T06:36:18.654Z,37.80
2018-06-16T06:38:49.900Z,38.70
2018-06-16T06:41:21.768Z,41.65
2018-06-16T06:43:53.311Z,41.07
2018-06-16T06:46:26.144Z,40.76
2018-06-16T06:48:57.205Z,42.17
2018-06-16T06:51:29.418Z,41.27
2018-06-16T06:54:00.864Z,40.88
2018-06-16T06:56:32.562Z,40.83
2018-06-16T06:59:03.896Z,41.92
2018-06-16T07:01:35.154Z,41.34
2018-06-16T07:04:07.202Z,41.44
2018-06-16T07:06:38.541Z,41.28
2018-06-16T07:09:11.392Z,42.03
2018-06-16T07:11:42.860Z,41.32
2018-06-16T07:14:14.579Z,40.90
2018-06-16T07:16:46.369Z,42.06
2018-06-16T07:19:18.036Z,41.91
2018-06-16T07:21:49.138Z,42.70
2018-06-16T07:24:21.085Z,42.65
2018-06-16T07:26:52.156Z,41.89
2018-06-16T07:29:22.825Z,41.16
2018-06-16T07:31:53.437Z,41.29
2018-06-16T07:34:24.084Z,41.25
2018-06-16T07:36:54.714Z,40.45
2018-06-16T07:39:25.819Z,41.17
2018-06-16T07:41:56.954Z,41.79
2018-06-16T07:44:28.732Z,41.98
2018-06-16T07:46:59.867Z,41.85
2018-06-16T07:49:32.044Z,42.69
2018-06-16T07:52:02.939Z,42.38
2018-06-16T07:54:34.052Z,41.80
2018-06-16T07:57:05.111Z,42.29
2018-06-16T07:59:39.604Z,42.76
2018-06-16T08:02:10.584Z,41.68
2018-06-16T08:04:41.883Z,42.71
2018-06-16T08:07:13.246Z,41.56
2018-06-16T08:09:44.571Z,40.04
2018-06-16T08:12:15.644Z,37.50
2018-06-16T08:14:46.799Z,36.49
2018-06-16T08:17:17.913Z,35.48
2018-06-16T08:19:48.765Z,34.26
2018-06-16T08:22:20.072Z,32.93
2018-06-16T08:24:51.834Z,32.02
2018-06-16T08:27:23.181Z,31.72
2018-06-16T08:29:54.221Z,31.43
2018-06-16T08:32:25.130Z,31.17
2018-06-16T08:34:56.346Z,30.94
2018-06-16T08:37:27.336Z,31.24
2018-06-16T08:39:58.709Z,31.12
2018-06-16T08:42:29.841Z,31.10
2018-06-16T08:45:01.114Z,30.47
2018-06-16T08:47:33.380Z,30.66
2018-06-16T08:50:04.938Z,30.92
2018-06-16T08:52:36.078Z,30.93
2018-06-16T08:55:07.643Z,31.10
2018-06-16T08:57:38.733Z,31.08
2018-06-16T09:00:11.014Z,30.83
2018-06-16T09:02:42.789Z,30.90
2018-06-16T09:05:13.801Z,30.47
2018-06-16T09:07:44.757Z,30.24
2018-06-16T09:10:15.888Z,30.22
2018-06-16T09:12:46.850Z,30.16
2018-06-16T09:15:18.221Z,30.41
2018-06-16T09:17:49.458Z,30.73
2018-06-16T09:20:20.826Z,31.08
2018-06-16T09:22:52.242Z,31.35
2018-06-16T09:25:23.445Z,31.48
2018-06-16T09:27:54.658Z,31.31
2018-06-16T09:30:25.886Z,30.98
2018-06-16T09:32:57.143Z,31.17
2018-06-16T09:35:28.406Z,31.36
2018-06-16T09:37:59.712Z,31.65
2018-06-16T09:40:30.826Z,31.39
2018-06-16T09:43:01.961Z,31.41
2018-06-16T09:45:32.897Z,31.40
2018-06-16T09:48:04.804Z,30.87
2018-06-16T09:50:35.911Z,31.02
2018-06-16T09:53:08.016Z,30.45
2018-06-16T09:55:40.426Z,30.19
2018-06-16T09:58:11.626Z,30.51
2018-06-16T10:00:43.046Z,30.83
2018-06-16T10:03:14.331Z,31.04
2018-06-16T10:05:45.645Z,31.11
2018-06-16T10:08:16.947Z,31.39
2018-06-16T10:10:48.164Z,31.14
2018-06-16T10:13:19.219Z,31.39
2018-06-16T10:15:50.576Z,30.92
2018-06-16T10:18:23.441Z,31.20
2018-06-16T10:20:54.697Z,31.31
2018-06-16T10:23:25.831Z,30.98
2018-06-16T10:25:56.994Z,30.79
2018-06-16T10:28:28.010Z,31.00
2018-06-16T10:30:59.466Z,30.81
2018-06-16T10:33:31.324Z,30.42
2018-06-16T10:36:02.383Z,30.81
2018-06-16T10:38:34.330Z,30.19
2018-06-16T10:41:05.811Z,30.41
2018-06-16T10:43:37.635Z,30.41
2018-06-16T10:46:08.771Z,30.14
2018-06-16T10:48:39.812Z,30.30
2018-06-16T10:51:11.000Z,29.90
2018-06-16T10:53:44.144Z,29.84
2018-06-16T10:56:15.623Z,29.14
2018-06-16T10:58:47.869Z,29.27
2018-06-16T11:01:19.158Z,29.61
2018-06-16T11:03:49.995Z,29.22
2018-06-16T11:06:21.140Z,29.38
2018-06-16T11:08:52.394Z,29.35
2018-06-16T11:11:23.453Z,29.42
2018-06-16T11:13:54.313Z,29.59
2018-06-16T11:16:25.383Z,29.69
2018-06-16T11:18:56.560Z,29.83
2018-06-16T11:21:27.848Z,29.89
2018-06-16T11:24:00.666Z,29.51
2018-06-16T11:26:32.927Z,29.33
2018-06-16T11:29:04.082Z,28.82
2018-06-16T11:31:35.176Z,28.70
2018-06-16T11:34:06.272Z,28.64
2018-06-16T11:36:37.488Z,28.72
2018-06-16T11:39:11.822Z,28.61
2018-06-16T11:41:42.888Z,28.61
2018-06-16T11:44:14.128Z,28.62
2018-06-16T11:46:45.171Z,28.32
2018-06-16T11:49:16.349Z,27.94
2018-06-16T11:51:47.292Z,28.22
2018-06-16T11:54:19.522Z,28.36
2018-06-16T11:56:51.019Z,28.32
2018-06-16T11:59:21.943Z,28.70
2018-06-16T12:01:53.840Z,28.96
2018-06-16T12:04:25.095Z,29.27
2018-06-16T12:06:56.184Z,29.71
2018-06-16T12:09:29.922Z,29.87
2018-06-16T12:12:01.110Z,29.71
2018-06-16T12:14:32.458Z,29.56
2018-06-16T12:17:03.655Z,29.35
2018-06-16T12:19:36.213Z,29.13
2018-06-16T12:22:07.287Z,29.21
2018-06-16T12:24:38.389Z,28.64
2018-06-16T12:27:11.380Z,28.79
2018-06-16T12:29:42.439Z,28.74
2018-06-16T12:32:13.768Z,28.71
2018-06-16T12:34:45.191Z,28.58
2018-06-16T12:37:17.327Z,28.64
2018-06-16T12:39:48.615Z,28.68
2018-06-16T12:42:19.805Z,28.65
2018-06-16T12:44:50.980Z,28.55
2018-06-16T12:47:22.418Z,28.55
2018-06-16T12:49:53.498Z,28.75
2018-06-16T12:52:25.072Z,28.66
2018-06-16T12:54:56.435Z,28.48
2018-06-16T12:57:27.910Z,28.35
2018-06-16T13:00:00.268Z,28.12
2018-06-16T13:02:32.503Z,28.02
2018-06-16T13:05:03.452Z,27.95
2018-06-16T13:07:34.684Z,27.98
2018-06-16T13:10:06.025Z,27.90
2018-06-16T13:12:38.301Z,27.81
2018-06-16T13:15:09.514Z,27.70
2018-06-16T13:17:40.813Z,27.76
2018-06-16T13:20:12.082Z,27.74
2018-06-16T13:22:43.462Z,27.68
2018-06-16T13:25:14.584Z,27.48
2018-06-16T13:27:45.970Z,27.34
2018-06-16T13:30:16.981Z,27.23
2018-06-16T13:32:48.831Z,27.14
2018-06-16T13:35:19.973Z,27.06
2018-06-16T13:37:51.405Z,26.96
2018-06-16T13:40:22.453Z,26.93
2018-06-16T13:42:54.346Z,26.84
2018-06-16T13:45:25.574Z,26.90
2018-06-16T13:47:56.966Z,26.89
2018-06-16T13:50:27.943Z,26.75
2018-06-16T13:53:00.050Z,26.53
2018-06-16T13:55:31.668Z,26.04
2018-06-16T13:58:04.598Z,26.17
2018-06-16T14:00:36.756Z,26.33
2018-06-16T14:03:08.779Z,26.44
2018-06-16T14:05:39.933Z,26.50
2018-06-16T14:08:11.328Z,26.55
2018-06-16T14:10:44.090Z,26.69
2018-06-16T14:13:16.184Z,26.86
2018-06-16T14:15:47.252Z,27.07
2018-06-16T14:18:18.540Z,26.98
2018-06-16T14:20:50.287Z,27.17
2018-06-16T14:23:21.314Z,27.39
2018-06-16T14:25:53.500Z,27.60
2018-06-16T14:28:24.609Z,27.80
2018-06-16T14:30:55.650Z,27.48
2018-06-16T14:33:26.877Z,27.40
2018-06-16T14:35:58.090Z,27.64
2018-06-16T14:38:29.523Z,27.84
2018-06-16T14:41:01.308Z,27.86
2018-06-16T14:43:32.547Z,27.90
2018-06-16T14:46:03.404Z,27.97
2018-06-16T14:48:35.062Z,27.91
2018-06-16T14:51:06.236Z,27.57
2018-06-16T14:53:37.363Z,27.41
2018-06-16T14:56:08.468Z,27.39
2018-06-16T14:58:41.163Z,27.46
2018-06-16T15:01:12.882Z,27.51
2018-06-16T15:03:44.209Z,27.26
2018-06-16T15:06:16.771Z,27.21
2018-06-16T15:08:48.381Z,26.71
2018-06-16T15:11:28.233Z,26.80
2018-06-16T15:13:59.294Z,26.86
2018-06-16T15:16:31.323Z,26.62
2018-06-16T15:19:02.307Z,26.19
2018-06-16T15:21:42.862Z,26.20
2018-06-16T15:24:14.904Z,25.90
2018-06-16T15:26:52.108Z,25.97
2018-06-16T15:29:23.952Z,25.84
2018-06-16T15:31:55.323Z,25.76
2018-06-16T15:34:27.502Z,25.73
2018-06-16T15:36:59.184Z,25.47
2018-06-16T15:39:30.402Z,25.41
2018-06-16T15:42:01.985Z,25.22
2018-06-16T15:44:33.141Z,25.15
2018-06-16T15:47:04.680Z,25.08
2018-06-16T15:49:35.961Z,25.10
2018-06-16T15:52:08.831Z,25.00
2018-06-16T15:54:40.085Z,24.91
2018-06-16T15:57:11.181Z,24.90
2018-06-16T15:59:42.305Z,24.73
2018-06-16T16:05:00.000Z,24.51
2018-06-16T16:07:38.829Z,24.43
2018-06-16T16:10:10.800Z,24.37
2018-06-16T16:12:42.213Z,24.22
2018-06-16T16:15:13.781Z,24.21
2018-06-16T16:17:45.191Z,24.24
2018-06-16T16:20:28.359Z,24.13
2018-06-16T16:22:59.605Z,23.98
2018-06-16T16:28:10.257Z,23.88
2018-06-16T16:30:49.869Z,23.37
2018-06-16T16:33:24.433Z,23.90
2018-06-16T16:35:55.823Z,23.81
2018-06-16T16:38:26.571Z,23.79
2018-06-16T16:40:57.346Z,23.79
2018-06-16T16:43:28.103Z,23.65
2018-06-16T16:45:58.858Z,23.64
2018-06-16T16:48:38.386Z,23.49
2018-06-16T16:51:10.194Z,23.55
2018-06-16T16:53:42.087Z,23.52
2018-06-16T16:56:12.768Z,23.51
2018-06-16T16:58:43.502Z,23.52
2018-06-16T17:01:14.253Z,23.44
2018-06-16T17:03:55.586Z,23.51
2018-06-16T17:06:26.271Z,23.41
2018-06-16T17:08:58.762Z,23.25
2018-06-16T17:11:34.598Z,23.17
2018-06-16T17:14:10.557Z,23.16
2018-06-16T17:16:41.942Z,22.97
2018-06-16T17:19:12.976Z,23.00
2018-06-16T17:21:44.359Z,22.84
2018-06-16T17:24:20.655Z,23.01
2018-06-16T17:26:51.923Z,22.97
2018-06-16T17:29:24.689Z,22.86
2018-06-16T17:31:59.496Z,22.80
2018-06-16T17:34:37.124Z,22.73
2018-06-16T17:37:15.296Z,22.75
2018-06-16T17:39:47.252Z,22.60
2018-06-16T17:42:18.379Z,22.52
2018-06-16T17:44:59.000Z,22.43
2018-06-16T17:47:32.320Z,22.36
2018-06-16T17:50:10.956Z,22.43
2018-06-16T17:52:47.788Z,22.44
2018-06-16T17:55:25.062Z,22.44
2018-06-16T17:57:57.281Z,22.55
2018-06-16T18:00:30.409Z,22.56
2018-06-16T18:03:15.031Z,22.54
2018-06-16T18:05:52.790Z,22.57
2018-06-16T18:08:28.696Z,22.55
2018-06-16T18:11:02.637Z,22.53
2018-06-16T18:13:45.252Z,22.54
2018-06-16T18:16:23.199Z,22.49
2018-06-16T18:18:57.796Z,22.41
2018-06-16T18:21:28.535Z,22.37
2018-06-16T18:24:17.073Z,22.41
2018-06-16T18:26:51.173Z,22.39
2018-06-16T18:29:23.941Z,22.52
2018-06-16T18:32:03.544Z,22.46
2018-06-16T18:34:39.293Z,22.46
2018-06-16T18:37:16.637Z,22.46
2018-06-16T18:39:53.828Z,22.45
2018-06-16T18:42:24.904Z,22.31
2018-06-16T18:44:58.113Z,22.30
2018-06-16T18:47:32.989Z,22.35
2018-06-16T18:50:05.952Z,22.38
2018-06-16T18:52:38.206Z,22.28
2018-06-16T18:55:15.267Z,22.15
2018-06-16T18:57:57.514Z,22.10
2018-06-16T19:00:29.053Z,22.09
2018-06-16T19:03:02.859Z,22.05
2018-06-16T19:05:39.405Z,21.92
2018-06-16T19:08:11.490Z,21.91
2018-06-16T19:10:43.843Z,21.98
2018-06-16T19:13:18.790Z,21.90
2018-06-16T19:16:01.020Z,21.91
2018-06-16T19:18:41.221Z,21.73
2018-06-16T19:21:13.448Z,21.94
2018-06-16T19:23:49.679Z,21.94
2018-06-16T19:26:21.635Z,22.01
2018-06-16T19:28:58.539Z,22.06
2018-06-16T19:31:42.935Z,22.09
2018-06-16T19:34:21.858Z,22.15
2018-06-16T19:36:54.378Z,22.21
2018-06-16T19:39:30.478Z,22.19
2018-06-16T19:42:01.507Z,22.28
2018-06-16T19:44:44.892Z,22.25
2018-06-16T19:47:27.677Z,22.22
2018-06-16T19:49:58.737Z,22.17
2018-06-16T19:52:33.952Z,22.05
2018-06-16T19:55:10.549Z,22.18
2018-06-16T19:57:47.709Z,22.25
2018-06-16T20:00:27.847Z,22.25
2018-06-16T20:02:59.236Z,22.30
2018-06-16T20:05:30.431Z,22.17
2018-06-16T20:08:01.612Z,22.09
2018-06-16T20:13:09.896Z,22.11
2018-06-16T20:15:41.003Z,22.01
2018-06-16T20:18:17.656Z,21.93
2018-06-16T20:20:50.835Z,21.81
2018-06-16T20:23:22.046Z,21.76
2018-06-16T20:25:53.349Z,21.75
2018-06-16T20:28:24.901Z,21.73
2018-06-16T20:31:12.455Z,21.68
2018-06-16T20:33:44.449Z,21.61
2018-06-16T20:36:19.353Z,21.68
2018-06-16T20:38:50.612Z,21.74
2018-06-16T20:41:21.695Z,21.67
2018-06-16T20:46:45.995Z,21.73
2018-06-16T20:49:17.072Z,21.83
2018-06-16T20:51:56.284Z,21.88
2018-06-16T20:54:28.587Z,21.88
2018-06-16T20:57:01.788Z,21.89
2018-06-16T20:59:32.973Z,21.94
2018-06-16T21:02:04.228Z,21.99
2018-06-16T21:04:35.792Z,22.01
2018-06-16T21:07:08.138Z,22.03
2018-06-16T21:09:39.581Z,22.02
2018-06-16T21:12:20.550Z,22.04
2018-06-16T21:14:51.648Z,22.05
2018-06-16T21:17:23.457Z,21.98
2018-06-16T21:19:55.586Z,22.00
2018-06-16T21:22:26.718Z,21.92
2018-06-16T21:24:57.982Z,21.93
2018-06-16T21:27:29.411Z,21.96
2018-06-16T21:30:01.785Z,21.89
2018-06-16T21:32:44.211Z,21.88
2018-06-16T21:35:15.477Z,21.88
2018-06-16T21:37:46.855Z,21.91
2018-06-16T21:40:17.851Z,21.90
2018-06-16T21:42:48.845Z,21.84
2018-06-16T21:45:19.678Z,21.84
2018-06-16T21:47:50.922Z,21.97
2018-06-16T21:50:22.451Z,21.99
2018-06-16T21:52:53.478Z,22.10
2018-06-16T21:55:24.372Z,22.16
2018-06-16T21:57:56.217Z,22.13
2018-06-16T22:00:31.550Z,22.17
2018-06-16T22:03:02.776Z,22.17
2018-06-16T22:05:34.060Z,22.19
2018-06-16T22:08:09.915Z,22.17
2018-06-16T22:10:41.300Z,22.15
2018-06-16T22:13:12.444Z,22.10
2018-06-16T22:15:44.557Z,22.02
2018-06-16T22:18:16.517Z,21.96
2018-06-16T22:20:49.362Z,21.89
2018-06-16T22:23:20.339Z,21.85
2018-06-16T22:25:52.291Z,21.89
2018-06-16T22:28:23.968Z,21.79
2018-06-16T22:30:56.147Z,21.79
2018-06-16T22:33:27.305Z,21.68
2018-06-16T22:35:58.484Z,21.64
2018-06-16T22:38:29.665Z,21.55
2018-06-16T22:41:00.628Z,21.53
2018-06-16T22:43:32.160Z,21.49
2018-06-16T22:46:03.429Z,21.47
2018-06-16T22:48:34.351Z,21.48
2018-06-16T22:51:05.512Z,21.43
2018-06-16T22:53:36.644Z,21.48
2018-06-16T22:58:38.121Z,21.37
2018-06-16T23:01:09.181Z,21.33
2018-06-16T23:03:40.084Z,21.41
2018-06-16T23:06:10.999Z,21.34
2018-06-16T23:08:41.960Z,21.29
2018-06-16T23:11:13.051Z,21.28
2018-06-16T23:13:45.155Z,21.23
2018-06-16T23:16:16.584Z,21.27
2018-06-16T23:18:47.612Z,21.28
2018-06-16T23:21:19.886Z,21.21
2018-06-16T23:23:50.853Z,21.21
2018-06-16T23:26:22.944Z,21.19
2018-06-16T23:28:53.977Z,21.17
2018-06-16T23:31:24.945Z,21.14
2018-06-16T23:33:55.950Z,21.13
2018-06-16T23:36:26.947Z,21.15
2018-06-16T23:38:58.172Z,21.25
2018-06-16T23:41:29.434Z,21.19
2018-06-16T23:44:00.611Z,21.24
2018-06-16T23:46:31.644Z,21.20
2018-06-16T23:49:02.725Z,21.20
2018-06-16T23:51:36.006Z,21.21
2018-06-16T23:54:07.195Z,21.26
2018-06-16T23:56:38.438Z,21.21
2018-06-16T23:59:09.653Z,21.21
